Alda, Nebraska
Current Conditions -  °F | °C
As of 10:53 AM on Sunday 21 Dec 2014 (Local Time) from KGRI Reporting Station
Haze Haze  
Wind Chill: -4°   Ceiling: 400
Heat Index:   Visibility: 2mi
Dew Point:   Wind: 17mph
Humidity: 96%   Direction: 180°S
Pressure: 29.77"   Gusts: NA
Location:  40.87°N, 98.47°W
Report Text: KGRI 211653Z 18015KT 2SM BR OVC004 02/01 A2977 RMK AO2 SLP102 T00170011
Loading
Personal Weather Stations






























Interactive Weather Map New forecast layout! Learn more

10-Day Weather Forecast

Advertisements
Track Severe Weather on mobile